Time;durP1;ratioP1;P1;durP2;ratioP2;P2;SDS_P1;SDS_P2;PMS_P1;PMS_P2;Temp;Humidity;BMP_temperature;BMP_pressure;BME280_temperature;BME280_humidity;BME280_pressure;Samples;Min_cycle;Max_cycle;Signal;HPM_P1;HPM_P2
2021/06/21 00:00:11;;;;;;;8.55;6.50;;;25.10;57.30;;;;;;4989695;28;20387;-63
2021/06/21 00:02:37;;;;;;;7.63;6.50;;;25.10;57.30;;;;;;4992459;28;20994;-63
2021/06/21 00:05:05;;;;;;;7.75;6.30;;;25.10;57.30;;;;;;4993720;28;20429;-63
2021/06/21 00:07:30;;;;;;;7.82;6.68;;;25.10;57.30;;;;;;4986946;28;20448;-63
2021/06/21 00:09:56;;;;;;;8.73;6.60;;;25.00;57.20;;;;;;4989432;28;20402;-63
2021/06/21 00:12:22;;;;;;;8.60;6.47;;;25.00;57.20;;;;;;4991120;28;20398;-63
2021/06/21 00:14:48;;;;;;;7.37;6.30;;;25.10;57.30;;;;;;4989165;28;20400;-63
2021/06/21 00:17:15;;;;;;;8.40;6.85;;;25.00;57.10;;;;;;4993692;28;20479;-63
2021/06/21 00:19:42;;;;;;;8.87;6.47;;;25.00;57.30;;;;;;4995529;28;20881;-63
2021/06/21 00:22:07;;;;;;;8.27;6.55;;;25.00;57.10;;;;;;4995482;28;20467;-63
2021/06/21 00:24:33;;;;;;;8.93;6.18;;;25.00;57.20;;;;;;4990835;28;20828;-63
2021/06/21 00:26:59;;;;;;;7.37;6.40;;;25.00;57.20;;;;;;4990069;28;20968;-63
2021/06/21 00:29:25;;;;;;;7.97;6.60;;;25.00;57.20;;;;;;4990310;28;20401;-63
2021/06/21 00:31:50;;;;;;;8.07;6.40;;;25.00;57.20;;;;;;4990046;28;20391;-63
2021/06/21 00:34:16;;;;;;;8.82;6.50;;;25.00;57.30;;;;;;4986915;28;20781;-63
2021/06/21 00:36:42;;;;;;;8.40;6.30;;;25.00;57.10;;;;;;4984924;28;20398;-63
2021/06/21 00:39:09;;;;;;;9.05;6.40;;;25.00;57.30;;;;;;4992165;28;20393;-63
2021/06/21 00:41:36;;;;;;;8.07;6.43;;;25.00;57.10;;;;;;4988608;28;20399;-63
2021/06/21 00:44:03;;;;;;;7.95;6.28;;;25.00;57.20;;;;;;4993126;28;20392;-63
2021/06/21 00:46:28;;;;;;;7.60;6.00;;;25.00;57.20;;;;;;4993177;28;20797;-63
2021/06/21 00:48:54;;;;;;;7.25;5.85;;;25.00;57.10;;;;;;4989578;28;20398;-63
2021/06/21 00:51:21;;;;;;;8.77;6.65;;;24.90;57.10;;;;;;4989244;28;20408;-63
2021/06/21 00:53:48;;;;;;;7.40;6.15;;;25.00;57.10;;;;;;4986682;28;20436;-63
2021/06/21 00:56:15;;;;;;;7.07;5.78;;;25.00;57.20;;;;;;4988723;28;21349;-63
2021/06/21 00:58:40;;;;;;;8.55;6.05;;;25.00;57.10;;;;;;4990889;28;20386;-63
2021/06/21 01:01:06;;;;;;;7.00;5.63;;;25.00;57.20;;;;;;4989522;28;20465;-63
2021/06/21 01:03:32;;;;;;;10.18;6.15;;;25.00;57.20;;;;;;4982447;28;20460;-63
2021/06/21 01:05:58;;;;;;;7.88;6.07;;;25.00;57.10;;;;;;4983235;28;20429;-63
2021/06/21 01:08:24;;;;;;;8.23;6.20;;;25.00;57.10;;;;;;4995013;28;20403;-63
2021/06/21 01:10:52;;;;;;;7.88;5.97;;;25.00;57.10;;;;;;4988396;28;20405;-63
2021/06/21 01:13:39;;;;;;;7.53;6.10;;;25.00;57.00;;;;;;4991396;28;20398;-63
2021/06/21 01:16:37;;;;;;;6.82;5.97;;;24.90;57.00;;;;;;4988563;28;20395;-63
2021/06/21 01:19:18;;;;;;;7.45;5.85;;;24.90;57.10;;;;;;4988825;28;20914;-61
2021/06/21 01:22:06;;;;;;;7.38;6.05;;;24.90;57.00;;;;;;4997345;28;20448;-61
2021/06/21 01:24:55;;;;;;;7.25;6.30;;;24.90;57.10;;;;;;4989203;28;20394;-61
2021/06/21 01:27:27;;;;;;;7.80;5.70;;;24.90;57.10;;;;;;4993550;28;20424;-61
2021/06/21 01:30:08;;;;;;;8.83;6.10;;;24.90;57.10;;;;;;4999161;28;20924;-61
2021/06/21 01:32:43;;;;;;;7.97;5.70;;;24.90;57.00;;;;;;4985465;28;20821;-61
2021/06/21 01:35:15;;;;;;;7.00;5.72;;;24.90;57.00;;;;;;4994847;28;20401;-61
2021/06/21 01:37:41;;;;;;;7.78;5.97;;;24.90;57.00;;;;;;4988916;28;20397;-61
2021/06/21 01:40:08;;;;;;;9.32;5.80;;;24.90;57.10;;;;;;4989240;28;20394;-61
2021/06/21 01:42:35;;;;;;;7.45;5.80;;;24.90;57.00;;;;;;4991111;28;20394;-61
2021/06/21 01:45:07;;;;;;;6.90;5.63;;;24.90;57.00;;;;;;4986712;28;20418;-61
2021/06/21 01:47:34;;;;;;;7.38;5.50;;;24.90;57.10;;;;;;4992474;28;20402;-61
2021/06/21 01:50:01;;;;;;;6.93;5.47;;;24.90;57.00;;;;;;5003562;28;20508;-61
2021/06/21 01:52:34;;;;;;;8.18;5.50;;;24.90;57.00;;;;;;5003833;28;20401;-61
2021/06/21 01:55:01;;;;;;;6.22;5.40;;;24.90;57.00;;;;;;4991823;28;20400;-61
2021/06/21 01:57:32;;;;;;;7.57;5.82;;;24.90;57.00;;;;;;4991488;28;20524;-61
2021/06/21 02:00:03;;;;;;;8.25;5.60;;;24.80;57.00;;;;;;4991998;28;20398;-61
2021/06/21 02:02:31;;;;;;;7.95;5.38;;;24.90;57.00;;;;;;4991912;28;20450;-61
2021/06/21 02:04:59;;;;;;;7.82;5.50;;;24.90;57.00;;;;;;4991409;28;20424;-61
2021/06/21 02:07:26;;;;;;;7.10;5.32;;;24.80;57.00;;;;;;4986178;28;20386;-61
2021/06/21 02:09:56;;;;;;;7.07;5.13;;;24.90;57.00;;;;;;4991648;28;20986;-61
2021/06/21 02:12:24;;;;;;;7.55;5.20;;;24.80;56.90;;;;;;4997035;28;20443;-61
2021/06/21 02:14:51;;;;;;;7.82;5.05;;;24.80;56.90;;;;;;4991672;28;20391;-61
2021/06/21 02:17:22;;;;;;;6.60;5.38;;;24.80;56.70;;;;;;4993096;28;20398;-61
2021/06/21 02:19:54;;;;;;;8.00;5.40;;;24.80;56.80;;;;;;4992407;28;20481;-61
2021/06/21 02:22:25;;;;;;;7.25;5.22;;;24.80;56.90;;;;;;4994282;28;20794;-61
2021/06/21 02:24:52;;;;;;;6.68;5.25;;;24.80;56.80;;;;;;4992265;28;20833;-61
2021/06/21 02:27:19;;;;;;;7.22;5.20;;;24.80;56.90;;;;;;4985995;28;20417;-61
2021/06/21 02:29:47;;;;;;;5.85;4.65;;;24.80;56.80;;;;;;4990596;28;21229;-61
2021/06/21 02:32:13;;;;;;;7.18;5.20;;;24.80;56.90;;;;;;4990769;28;20583;-61
2021/06/21 02:34:39;;;;;;;7.75;5.22;;;24.80;56.90;;;;;;4990711;28;21420;-61
2021/06/21 02:37:05;;;;;;;8.00;5.25;;;24.80;56.90;;;;;;4988930;28;20459;-61
2021/06/21 02:39:31;;;;;;;7.38;5.13;;;24.80;56.90;;;;;;4990223;28;20985;-61
2021/06/21 02:41:56;;;;;;;7.85;5.20;;;24.80;57.40;;;;;;4990858;28;20421;-61
2021/06/21 02:44:22;;;;;;;6.90;5.00;;;24.80;56.90;;;;;;4999671;28;20398;-61
2021/06/21 02:46:48;;;;;;;7.07;5.05;;;24.80;56.80;;;;;;4988767;28;20465;-61
2021/06/21 02:49:14;;;;;;;7.13;5.10;;;24.80;56.90;;;;;;4991211;28;20429;-61
2021/06/21 02:51:49;;;;;;;7.85;5.18;;;24.80;56.90;;;;;;4986151;28;20394;-61
2021/06/21 02:54:42;;;;;;;7.38;4.97;;;24.80;56.90;;;;;;4995041;28;20861;-61
2021/06/21 02:57:16;;;;;;;7.85;5.20;;;24.80;56.90;;;;;;4996297;28;20912;-61
2021/06/21 02:59:44;;;;;;;7.78;4.75;;;24.80;56.90;;;;;;4991530;28;20386;-61
2021/06/21 03:02:12;;;;;;;7.88;4.85;;;24.80;56.80;;;;;;4990374;28;20414;-61
2021/06/21 03:04:40;;;;;;;6.40;4.70;;;24.80;56.80;;;;;;4985195;28;20755;-61
2021/06/21 03:07:08;;;;;;;7.00;4.63;;;24.80;56.80;;;;;;4990361;28;20506;-61
2021/06/21 03:09:35;;;;;;;6.15;4.60;;;24.80;56.70;;;;;;4990331;28;20455;-61
2021/06/21 03:12:01;;;;;;;7.40;4.87;;;24.70;56.90;;;;;;4989604;28;20396;-61
2021/06/21 03:14:30;;;;;;;6.95;4.55;;;24.80;57.00;;;;;;4990072;28;20385;-61
2021/06/21 03:16:58;;;;;;;9.93;4.88;;;24.80;57.30;;;;;;4995692;28;20951;-61
2021/06/21 03:19:27;;;;;;;10.63;5.47;;;24.80;57.10;;;;;;4992961;28;20752;-63
2021/06/21 03:21:54;;;;;;;14.20;6.03;;;24.80;58.30;;;;;;4992518;28;20394;-64
2021/06/21 03:24:25;;;;;;;12.75;6.40;;;24.80;59.20;;;;;;4992790;28;20434;-63
2021/06/21 03:26:50;;;;;;;13.05;6.50;;;24.80;60.30;;;;;;4992446;28;20426;-63
2021/06/21 03:29:20;;;;;;;12.57;6.38;;;24.80;58.80;;;;;;4993387;28;20753;-63
2021/06/21 03:31:48;;;;;;;16.20;6.68;;;24.90;61.80;;;;;;4990792;28;20402;-63
2021/06/21 03:34:16;;;;;;;14.13;6.30;;;24.90;61.50;;;;;;5001406;28;20455;-63
2021/06/21 03:36:42;;;;;;;12.77;6.32;;;25.00;61.90;;;;;;4987689;28;20450;-64
2021/06/21 03:39:08;;;;;;;11.15;5.70;;;25.00;61.00;;;;;;4993062;28;20921;-64
2021/06/21 03:41:34;;;;;;;12.15;6.00;;;25.00;61.10;;;;;;4990336;28;20389;-63
2021/06/21 03:44:00;;;;;;;11.98;6.05;;;24.90;60.60;;;;;;4993277;28;20932;-63
2021/06/21 03:46:26;;;;;;;15.65;5.72;;;24.90;61.40;;;;;;4990774;28;20517;-63
2021/06/21 03:48:51;;;;;;;13.80;5.83;;;25.00;60.70;;;;;;4989718;28;20434;-63
2021/06/21 03:51:18;;;;;;;16.80;6.22;;;25.00;61.30;;;;;;4989653;28;20406;-63
2021/06/21 03:53:44;;;;;;;15.20;6.63;;;25.00;61.00;;;;;;4989491;28;21232;-64
2021/06/21 03:56:10;;;;;;;13.60;6.40;;;25.00;61.70;;;;;;4988691;28;20405;-63
2021/06/21 03:58:36;;;;;;;17.45;6.72;;;24.90;61.50;;;;;;4988726;28;20411;-63
2021/06/21 04:01:02;;;;;;;13.38;6.28;;;24.90;59.70;;;;;;4990899;28;20394;-64
2021/06/21 04:03:27;;;;;;;14.18;6.47;;;24.90;60.00;;;;;;4989065;28;20414;-64
2021/06/21 04:05:53;;;;;;;13.70;6.05;;;24.90;60.00;;;;;;4991231;28;20426;-64
2021/06/21 04:08:19;;;;;;;13.68;5.93;;;24.90;60.80;;;;;;4992232;28;20391;-64
2021/06/21 04:10:46;;;;;;;15.98;6.78;;;24.80;60.80;;;;;;4998268;28;21497;-63
2021/06/21 04:13:13;;;;;;;15.68;6.32;;;24.90;61.10;;;;;;4991757;28;21203;-63
2021/06/21 04:15:39;;;;;;;14.52;6.50;;;24.90;60.00;;;;;;4989200;28;21592;-63
2021/06/21 04:18:10;;;;;;;14.38;6.28;;;24.80;59.80;;;;;;4988622;28;20670;-63
2021/06/21 04:20:37;;;;;;;14.13;6.88;;;24.80;59.40;;;;;;4987140;28;20464;-64
2021/06/21 04:23:05;;;;;;;17.92;6.65;;;24.80;59.40;;;;;;4990833;28;20390;-64
2021/06/21 04:25:31;;;;;;;14.75;6.65;;;24.80;60.10;;;;;;4993963;28;20528;-63
2021/06/21 04:27:56;;;;;;;16.25;6.60;;;24.80;59.80;;;;;;4989491;28;20394;-63
2021/06/21 04:30:24;;;;;;;17.17;6.23;;;24.80;59.50;;;;;;4989346;28;20941;-64
2021/06/21 04:32:51;;;;;;;11.68;5.70;;;24.80;60.10;;;;;;4989249;28;20394;-63
2021/06/21 04:35:19;;;;;;;11.55;5.57;;;24.80;59.40;;;;;;4989354;28;20796;-64
2021/06/21 04:37:46;;;;;;;12.35;5.95;;;24.80;59.50;;;;;;4985081;28;20399;-64
2021/06/21 04:40:15;;;;;;;14.75;6.05;;;24.80;59.50;;;;;;4995321;28;20389;-64
2021/06/21 04:42:41;;;;;;;13.13;5.97;;;24.80;59.40;;;;;;4989386;28;20396;-63
2021/06/21 04:45:08;;;;;;;14.45;6.05;;;24.80;59.30;;;;;;4988804;28;20816;-63
2021/06/21 04:47:33;;;;;;;14.85;5.68;;;24.80;59.20;;;;;;4987467;28;20490;-63
2021/06/21 04:50:04;;;;;;;13.73;5.65;;;24.80;59.20;;;;;;4987758;28;20497;-63
2021/06/21 04:52:33;;;;;;;15.63;5.90;;;24.80;58.80;;;;;;4990365;28;20901;-63
2021/06/21 04:55:01;;;;;;;10.55;5.43;;;24.80;59.00;;;;;;4983968;28;20409;-63
2021/06/21 04:57:28;;;;;;;11.32;5.68;;;24.80;58.90;;;;;;4984050;28;20521;-64
2021/06/21 04:59:54;;;;;;;12.45;5.50;;;24.80;58.70;;;;;;4985058;28;20397;-63
2021/06/21 05:02:20;;;;;;;10.15;5.35;;;24.80;58.50;;;;;;4986124;28;20766;-63
2021/06/21 05:04:46;;;;;;;10.98;5.65;;;24.80;58.60;;;;;;4990171;28;20407;-63
2021/06/21 05:07:11;;;;;;;15.17;6.00;;;24.80;58.80;;;;;;4989246;28;20844;-63
2021/06/21 05:09:37;;;;;;;12.98;5.45;;;24.80;58.70;;;;;;4991776;28;20388;-64
2021/06/21 05:12:03;;;;;;;12.93;5.70;;;24.80;58.50;;;;;;4988108;28;20403;-63
2021/06/21 05:14:29;;;;;;;10.27;5.47;;;24.80;58.50;;;;;;4988146;28;20414;-63
2021/06/21 05:16:55;;;;;;;13.07;5.33;;;24.80;58.50;;;;;;4991899;28;20405;-63
2021/06/21 05:19:21;;;;;;;8.63;4.85;;;24.80;58.50;;;;;;4992317;28;20390;-63
2021/06/21 05:21:49;;;;;;;11.95;4.85;;;24.80;58.20;;;;;;4991910;28;20945;-63
2021/06/21 05:24:15;;;;;;;7.57;4.65;;;24.80;58.20;;;;;;4992171;28;20391;-63
2021/06/21 05:26:40;;;;;;;10.53;4.67;;;24.80;58.30;;;;;;4992146;28;20920;-63
2021/06/21 05:29:06;;;;;;;8.85;5.03;;;24.80;58.00;;;;;;4993278;28;20398;-63
2021/06/21 05:31:31;;;;;;;8.50;4.73;;;24.80;58.20;;;;;;4993709;28;20409;-63
2021/06/21 05:33:57;;;;;;;8.10;4.65;;;24.80;58.00;;;;;;4992162;28;20410;-63
2021/06/21 05:36:23;;;;;;;8.75;4.68;;;24.80;57.90;;;;;;4992263;28;20394;-63
2021/06/21 05:38:48;;;;;;;9.03;4.80;;;24.80;57.80;;;;;;4992344;28;20398;-63
2021/06/21 05:41:14;;;;;;;6.57;4.18;;;24.80;57.70;;;;;;4995663;28;20727;-64
2021/06/21 05:43:40;;;;;;;6.30;4.30;;;24.80;57.90;;;;;;4991797;28;20481;-63
2021/06/21 05:46:05;;;;;;;7.93;4.47;;;24.80;57.90;;;;;;4992761;28;20417;-63
2021/06/21 05:48:31;;;;;;;8.63;4.90;;;24.80;57.80;;;;;;4991621;28;20405;-63
2021/06/21 05:51:00;;;;;;;8.47;4.60;;;24.80;58.10;;;;;;4997260;28;20427;-63
2021/06/21 05:53:28;;;;;;;7.88;4.45;;;24.80;57.80;;;;;;4997134;28;20754;-63
2021/06/21 05:55:55;;;;;;;8.25;4.20;;;24.80;57.80;;;;;;4996847;28;20397;-63
2021/06/21 05:58:20;;;;;;;7.15;4.60;;;24.80;57.60;;;;;;4990702;28;20414;-63
2021/06/21 06:00:46;;;;;;;7.30;4.20;;;24.80;57.90;;;;;;4992205;28;20445;-63
2021/06/21 06:03:12;;;;;;;7.87;4.50;;;24.70;57.50;;;;;;4995968;28;20431;-64
2021/06/21 06:05:37;;;;;;;8.48;4.57;;;24.70;57.70;;;;;;4985952;28;20414;-63
2021/06/21 06:08:03;;;;;;;5.97;4.00;;;24.80;57.70;;;;;;4990957;28;20393;-63
2021/06/21 06:10:29;;;;;;;8.10;4.63;;;24.70;57.60;;;;;;5003629;28;20403;-63
2021/06/21 06:12:55;;;;;;;6.17;4.27;;;24.70;57.90;;;;;;4991302;28;20405;-63
2021/06/21 06:15:20;;;;;;;7.97;4.30;;;24.70;57.90;;;;;;4991269;28;20738;-64
2021/06/21 06:17:46;;;;;;;8.20;3.90;;;24.80;57.60;;;;;;5003360;28;20754;-63
2021/06/21 06:20:13;;;;;;;8.23;4.50;;;24.70;57.70;;;;;;4994534;28;20398;-63
2021/06/21 06:22:38;;;;;;;8.13;4.55;;;24.80;57.70;;;;;;5000037;28;20489;-63
2021/06/21 06:25:06;;;;;;;7.50;4.40;;;24.70;58.20;;;;;;5001119;28;20429;-63
2021/06/21 06:27:32;;;;;;;8.55;4.63;;;24.80;57.80;;;;;;5000516;28;20458;-64
2021/06/21 06:29:57;;;;;;;9.13;4.80;;;24.80;57.80;;;;;;4991248;28;20771;-63
2021/06/21 06:32:23;;;;;;;7.78;4.40;;;24.70;58.10;;;;;;4990481;28;20441;-63
2021/06/21 06:34:49;;;;;;;9.60;4.33;;;24.80;58.00;;;;;;4997345;28;20397;-64
2021/06/21 06:37:14;;;;;;;8.57;4.53;;;24.80;57.90;;;;;;4996185;28;20397;-63
2021/06/21 06:39:40;;;;;;;8.32;4.00;;;24.80;58.20;;;;;;4997119;28;20393;-64
2021/06/21 06:42:06;;;;;;;6.60;4.00;;;24.80;57.90;;;;;;4990469;28;21019;-63
2021/06/21 06:44:32;;;;;;;6.53;4.20;;;24.80;57.60;;;;;;4991003;28;20441;-63
2021/06/21 06:46:58;;;;;;;8.00;4.28;;;24.80;57.80;;;;;;4988108;28;20549;-63
2021/06/21 06:49:23;;;;;;;7.13;3.90;;;24.80;57.70;;;;;;4993913;28;20398;-63
2021/06/21 06:51:52;;;;;;;8.05;3.97;;;24.80;57.60;;;;;;4991649;28;21024;-64
2021/06/21 06:57:04;;;;;;;7.15;3.80;;;24.80;57.50;;;;;;4994687;28;20392;-63
2021/06/21 06:59:35;;;;;;;7.18;3.85;;;24.80;57.60;;;;;;4990565;28;20480;-63
2021/06/21 07:02:10;;;;;;;6.22;3.83;;;24.80;57.50;;;;;;4993008;28;20795;-64
2021/06/21 07:04:37;;;;;;;6.90;3.97;;;24.80;57.50;;;;;;4990909;28;20867;-63
2021/06/21 07:07:04;;;;;;;8.05;3.70;;;24.80;57.60;;;;;;4990955;28;20493;-63
2021/06/21 07:09:31;;;;;;;8.50;4.05;;;24.80;57.30;;;;;;4984422;28;20446;-63
2021/06/21 07:11:58;;;;;;;7.10;4.10;;;24.80;58.20;;;;;;4984566;28;20412;-64
2021/06/21 07:14:23;;;;;;;6.60;3.65;;;24.80;57.50;;;;;;4989816;28;20495;-63
2021/06/21 07:16:49;;;;;;;6.97;3.80;;;24.80;57.40;;;;;;4990041;28;20512;-64
2021/06/21 07:19:17;;;;;;;6.63;3.70;;;24.80;57.40;;;;;;5002178;28;21099;-64
2021/06/21 07:21:43;;;;;;;5.93;3.50;;;24.80;57.50;;;;;;4986130;28;20403;-63
2021/06/21 07:24:09;;;;;;;6.40;3.70;;;24.80;57.50;;;;;;4992562;28;20385;-63
2021/06/21 07:26:36;;;;;;;7.18;3.72;;;24.80;57.40;;;;;;4993365;28;20966;-63
2021/06/21 07:29:02;;;;;;;6.78;3.67;;;24.80;57.70;;;;;;4990546;28;20875;-63
2021/06/21 07:31:27;;;;;;;6.60;3.60;;;24.80;57.50;;;;;;4987816;28;20888;-63
2021/06/21 07:33:53;;;;;;;5.97;3.42;;;24.80;57.60;;;;;;4990305;28;20389;-64
2021/06/21 07:36:19;;;;;;;7.23;3.57;;;24.80;57.20;;;;;;4984196;28;20401;-63
2021/06/21 07:38:45;;;;;;;5.68;3.28;;;24.80;56.90;;;;;;4996044;28;20395;-63
2021/06/21 07:41:10;;;;;;;6.20;3.37;;;24.80;56.90;;;;;;4986007;28;20390;-63
2021/06/21 07:43:36;;;;;;;6.28;3.70;;;24.80;57.00;;;;;;4996528;28;20389;-63
2021/06/21 07:46:04;;;;;;;6.07;3.30;;;24.80;56.90;;;;;;4989400;28;20428;-63
2021/06/21 07:48:30;;;;;;;5.53;3.05;;;24.80;56.90;;;;;;4983511;28;20799;-63
2021/06/21 07:50:57;;;;;;;4.78;3.58;;;24.80;57.00;;;;;;4990966;28;20390;-63
2021/06/21 07:53:22;;;;;;;6.75;3.25;;;24.80;57.00;;;;;;4991184;28;20387;-63
2021/06/21 07:55:48;;;;;;;5.63;3.10;;;24.80;56.90;;;;;;4990269;28;20401;-63
2021/06/21 07:58:14;;;;;;;6.40;3.47;;;24.80;56.80;;;;;;4985528;28;20386;-63
2021/06/21 08:00:40;;;;;;;4.70;3.10;;;24.80;56.90;;;;;;4992863;28;20407;-63
2021/06/21 08:03:09;;;;;;;6.35;3.28;;;24.90;56.90;;;;;;4989492;28;20469;-63
2021/06/21 08:05:36;;;;;;;6.43;3.13;;;24.80;57.00;;;;;;4993492;28;20425;-63
2021/06/21 08:08:03;;;;;;;5.07;3.15;;;24.80;56.80;;;;;;4992510;28;20510;-63
2021/06/21 08:10:28;;;;;;;8.25;3.15;;;24.80;56.90;;;;;;4993517;28;20385;-63
2021/06/21 08:12:54;;;;;;;8.10;3.20;;;24.80;56.80;;;;;;4989854;28;20404;-63
2021/06/21 08:15:20;;;;;;;6.73;3.03;;;24.80;56.80;;;;;;4991005;28;20401;-64
2021/06/21 08:17:45;;;;;;;6.90;2.70;;;24.90;57.00;;;;;;4989926;28;20406;-64
2021/06/21 08:20:13;;;;;;;6.93;2.70;;;24.90;56.70;;;;;;5001141;28;20404;-63
2021/06/21 08:22:39;;;;;;;6.15;2.75;;;24.90;56.70;;;;;;4983471;28;20478;-63
2021/06/21 08:25:07;;;;;;;6.18;2.97;;;24.90;56.80;;;;;;4983093;28;20549;-63
2021/06/21 08:27:34;;;;;;;6.20;2.70;;;24.90;56.50;;;;;;4988114;28;20410;-63
2021/06/21 08:30:00;;;;;;;6.03;2.70;;;24.90;56.50;;;;;;4984329;28;20518;-63
2021/06/21 08:32:27;;;;;;;6.13;2.70;;;24.90;56.50;;;;;;4990098;28;21321;-63
2021/06/21 08:34:52;;;;;;;8.75;2.80;;;24.90;56.60;;;;;;4989657;28;20456;-61
2021/06/21 08:37:20;;;;;;;5.90;2.60;;;24.90;56.50;;;;;;4989598;28;20436;-63
2021/06/21 08:39:47;;;;;;;7.82;2.67;;;24.90;56.60;;;;;;4990638;28;20958;-63
2021/06/21 08:42:12;;;;;;;8.02;2.83;;;24.90;56.60;;;;;;4989091;28;20409;-63
2021/06/21 08:44:41;;;;;;;8.52;2.50;;;24.90;56.60;;;;;;4992679;28;20756;-63
2021/06/21 08:47:08;;;;;;;8.93;2.57;;;24.90;56.60;;;;;;4988943;28;20413;-64
2021/06/21 08:49:38;;;;;;;6.72;2.53;;;24.90;56.60;;;;;;4990036;28;21315;-63
2021/06/21 08:52:04;;;;;;;7.10;2.33;;;24.90;56.70;;;;;;4992385;28;20430;-63
2021/06/21 08:54:30;;;;;;;6.35;2.20;;;24.90;57.20;;;;;;5000244;28;20397;-63
2021/06/21 08:56:58;;;;;;;6.50;2.30;;;24.90;56.60;;;;;;4995221;28;20875;-63
2021/06/21 08:59:25;;;;;;;3.60;1.90;;;24.90;56.60;;;;;;4993323;28;20394;-64
2021/06/21 09:01:50;;;;;;;6.75;1.90;;;24.90;56.40;;;;;;4993395;28;20509;-63
2021/06/21 09:04:17;;;;;;;6.37;2.07;;;24.90;56.40;;;;;;4986132;28;21085;-63
2021/06/21 09:06:43;;;;;;;5.50;2.00;;;24.90;56.50;;;;;;4998747;28;20429;-64
2021/06/21 09:09:09;;;;;;;6.40;2.13;;;24.90;56.40;;;;;;4992407;28;20390;-63
2021/06/21 09:11:50;;;;;;;12.45;2.30;;;24.90;56.40;;;;;;4999024;28;20436;-63
2021/06/21 09:14:24;;;;;;;8.40;2.17;;;24.90;56.50;;;;;;4997680;28;20397;-63
2021/06/21 09:16:51;;;;;;;6.15;1.80;;;25.00;56.50;;;;;;4997528;28;20429;-63
2021/06/21 09:19:18;;;;;;;5.30;1.98;;;24.90;56.60;;;;;;4997541;28;20403;-63
2021/06/21 09:21:44;;;;;;;8.07;2.27;;;25.00;56.60;;;;;;4991213;28;20398;-63
2021/06/21 09:24:25;;;;;;;7.13;2.08;;;25.00;56.60;;;;;;4993148;28;20925;-63
2021/06/21 09:26:54;;;;;;;5.50;1.75;;;25.00;56.50;;;;;;4998044;28;20488;-63
2021/06/21 09:29:36;;;;;;;5.78;2.03;;;25.00;56.50;;;;;;4997463;28;20485;-63
2021/06/21 09:32:02;;;;;;;4.28;1.85;;;25.00;56.40;;;;;;4988896;28;20401;-63
2021/06/21 09:34:28;;;;;;;5.03;1.85;;;25.00;56.60;;;;;;4992849;28;20470;-63
2021/06/21 09:37:04;;;;;;;6.03;1.90;;;24.90;56.50;;;;;;4992398;28;20852;-64
2021/06/21 09:39:33;;;;;;;8.18;1.88;;;25.00;56.60;;;;;;4994949;28;20398;-64
2021/06/21 09:42:22;;;;;;;5.97;1.80;;;25.00;56.60;;;;;;4995155;28;20398;-63
2021/06/21 09:45:02;;;;;;;4.13;1.80;;;25.00;56.40;;;;;;4990496;28;20405;-64
2021/06/21 09:47:38;;;;;;;4.00;1.70;;;25.00;56.40;;;;;;4991586;28;20413;-63
2021/06/21 09:50:21;;;;;;;5.45;1.63;;;25.00;56.40;;;;;;4993795;28;20747;-63
2021/06/21 09:52:49;;;;;;;4.47;1.42;;;25.00;56.40;;;;;;4984391;28;20863;-63
2021/06/21 09:55:18;;;;;;;4.67;1.40;;;25.00;56.30;;;;;;4988426;28;20907;-63
2021/06/21 09:57:46;;;;;;;5.78;1.77;;;25.00;56.40;;;;;;4984529;28;20402;-63
2021/06/21 10:00:14;;;;;;;5.10;1.42;;;25.00;56.30;;;;;;4987033;28;20403;-63
2021/06/21 10:02:40;;;;;;;5.05;1.48;;;25.00;56.20;;;;;;4989208;28;20824;-63
2021/06/21 10:05:20;;;;;;;4.20;1.58;;;25.00;56.30;;;;;;4995512;28;20525;-64
2021/06/21 10:07:46;;;;;;;5.20;1.73;;;25.00;56.30;;;;;;4993894;28;20400;-64
2021/06/21 10:10:17;;;;;;;5.40;1.50;;;25.00;56.90;;;;;;4991742;28;20767;-63
2021/06/21 10:12:43;;;;;;;8.77;1.80;;;25.00;56.40;;;;;;4989832;28;20422;-63
2021/06/21 10:15:11;;;;;;;4.43;1.52;;;25.00;56.40;;;;;;4993689;28;20404;-63
2021/06/21 10:17:37;;;;;;;5.07;1.63;;;25.00;56.40;;;;;;4994257;28;20422;-63
2021/06/21 10:20:07;;;;;;;6.07;1.65;;;25.00;56.40;;;;;;4988488;28;20394;-63
2021/06/21 10:22:35;;;;;;;6.05;1.42;;;25.00;56.40;;;;;;4991102;28;20398;-63
2021/06/21 10:25:01;;;;;;;7.73;1.60;;;25.00;56.40;;;;;;4989607;28;20397;-63
2021/06/21 10:27:30;;;;;;;6.05;1.40;;;25.00;56.40;;;;;;4987320;28;20440;-63
2021/06/21 10:29:56;;;;;;;6.43;1.50;;;25.00;56.40;;;;;;4990164;28;20410;-63
2021/06/21 10:32:26;;;;;;;7.70;1.60;;;25.00;56.40;;;;;;4984864;28;20540;-63
2021/06/21 10:34:52;;;;;;;5.07;1.50;;;25.00;56.40;;;;;;4995756;28;20471;-64
2021/06/21 10:37:24;;;;;;;4.45;1.67;;;25.00;56.40;;;;;;4991610;28;20887;-63
2021/06/21 10:39:52;;;;;;;5.83;1.70;;;24.90;56.40;;;;;;4989040;28;20481;-63
2021/06/21 10:42:19;;;;;;;3.63;1.40;;;25.00;56.40;;;;;;4993481;28;20727;-63
2021/06/21 10:44:45;;;;;;;3.88;1.30;;;25.00;56.40;;;;;;4990446;28;20481;-63
2021/06/21 10:47:27;;;;;;;4.70;1.90;;;24.90;56.40;;;;;;4990701;28;20417;-63
2021/06/21 10:50:21;;;;;;;3.03;1.20;;;24.90;56.20;;;;;;5002369;28;20385;-63
2021/06/21 10:52:55;;;;;;;3.08;1.15;;;24.90;56.20;;;;;;4994863;28;20442;-64
2021/06/21 10:55:27;;;;;;;3.38;1.33;;;24.90;56.10;;;;;;4995751;28;20389;-63
2021/06/21 10:58:06;;;;;;;3.63;1.27;;;25.00;56.20;;;;;;4995794;28;20402;-63
2021/06/21 11:00:50;;;;;;;4.28;1.45;;;25.00;56.10;;;;;;4992011;28;20817;-63
2021/06/21 11:03:25;;;;;;;3.28;1.35;;;25.00;56.10;;;;;;4993662;28;20890;-63
2021/06/21 11:06:19;;;;;;;3.95;1.50;;;25.00;56.10;;;;;;4990359;28;20613;-63
2021/06/21 11:08:47;;;;;;;2.53;1.40;;;25.00;56.10;;;;;;4986641;28;20422;-63
2021/06/21 11:11:51;;;;;;;2.67;1.20;;;25.00;56.10;;;;;;4989972;28;20382;-63
2021/06/21 11:14:24;;;;;;;4.38;1.30;;;25.00;56.00;;;;;;4961881;28;20416;-63
2021/06/21 11:17:19;;;;;;;2.65;1.40;;;25.00;56.00;;;;;;4962295;28;20426;-64
2021/06/21 11:19:44;;;;;;;2.88;1.20;;;25.00;56.00;;;;;;4971250;28;20430;-63
2021/06/21 11:22:11;;;;;;;3.03;1.25;;;25.00;56.00;;;;;;4990550;28;20492;-63
2021/06/21 11:24:42;;;;;;;2.83;1.17;;;25.00;56.00;;;;;;4985301;28;20390;-63
2021/06/21 11:27:10;;;;;;;1.98;1.00;;;25.00;55.90;;;;;;4999867;28;20432;-63
2021/06/21 11:29:44;;;;;;;2.15;1.10;;;25.00;55.90;;;;;;4993556;28;20400;-63
2021/06/21 11:32:12;;;;;;;2.55;1.10;;;25.00;55.90;;;;;;4994311;28;20404;-63
2021/06/21 11:35:02;;;;;;;2.60;1.30;;;25.00;55.90;;;;;;4994678;28;20380;-63
2021/06/21 11:37:35;;;;;;;2.72;1.10;;;25.00;55.80;;;;;;4992347;28;20406;-63
2021/06/21 11:40:12;;;;;;;3.13;1.10;;;25.00;56.40;;;;;;4989488;28;20407;-63
2021/06/21 11:42:39;;;;;;;3.08;1.30;;;25.00;55.80;;;;;;4990631;28;20408;-63
2021/06/21 11:45:08;;;;;;;2.25;1.30;;;25.00;55.70;;;;;;4989668;28;20526;-63
2021/06/21 11:47:35;;;;;;;2.55;1.30;;;25.00;55.70;;;;;;4989532;28;20392;-63
2021/06/21 11:50:09;;;;;;;3.65;1.17;;;25.00;55.70;;;;;;4987733;28;20800;-64
2021/06/21 11:52:34;;;;;;;3.00;1.15;;;25.00;55.70;;;;;;4990290;28;20445;-63
2021/06/21 11:55:16;;;;;;;2.47;1.20;;;25.00;55.70;;;;;;4995831;28;20490;-64
2021/06/21 11:57:49;;;;;;;3.05;1.20;;;25.00;56.20;;;;;;4988786;28;20493;-63
2021/06/21 12:00:17;;;;;;;2.92;1.25;;;25.00;55.60;;;;;;4984255;28;20433;-63
2021/06/21 12:02:43;;;;;;;3.03;1.33;;;25.00;55.80;;;;;;4997342;28;20414;-63
2021/06/21 12:05:11;;;;;;;4.80;1.23;;;25.00;55.70;;;;;;4989733;28;21243;-63
2021/06/21 12:07:41;;;;;;;3.40;1.17;;;25.00;55.80;;;;;;5000582;28;21039;-64
2021/06/21 12:10:18;;;;;;;4.22;1.30;;;25.10;56.00;;;;;;4989676;28;21232;-64
2021/06/21 12:12:47;;;;;;;3.75;1.40;;;25.10;56.00;;;;;;4989658;28;20441;-64
2021/06/21 12:15:25;;;;;;;3.67;1.23;;;25.10;56.10;;;;;;4988635;28;20648;-63
2021/06/21 12:17:51;;;;;;;4.80;1.40;;;25.10;56.00;;;;;;4988305;28;20375;-63
2021/06/21 12:20:18;;;;;;;6.57;1.65;;;25.10;56.30;;;;;;4989727;28;20402;-63
2021/06/21 12:23:04;;;;;;;4.60;1.50;;;25.10;56.20;;;;;;4989835;28;20811;-63
2021/06/21 12:25:35;;;;;;;7.07;1.40;;;25.10;56.20;;;;;;4989587;28;20748;-63
2021/06/21 12:28:18;;;;;;;6.10;1.50;;;25.10;56.20;;;;;;4991396;28;20867;-64
2021/06/21 12:31:00;;;;;;;5.93;1.50;;;25.20;56.20;;;;;;4987685;28;20534;-64
2021/06/21 12:33:28;;;;;;;4.20;1.40;;;25.10;56.00;;;;;;4984525;28;20438;-63
2021/06/21 12:36:12;;;;;;;5.15;1.40;;;25.20;56.20;;;;;;4992038;28;20475;-64
2021/06/21 12:38:44;;;;;;;6.28;1.77;;;25.20;56.10;;;;;;4992424;28;20393;-64
2021/06/21 12:41:14;;;;;;;3.17;1.33;;;25.20;56.10;;;;;;4995078;28;20395;-63
2021/06/21 12:43:41;;;;;;;4.28;1.42;;;25.20;56.10;;;;;;4987004;28;20441;-64
2021/06/21 12:46:17;;;;;;;4.17;1.70;;;25.20;56.00;;;;;;4990162;28;20421;-64
2021/06/21 12:48:44;;;;;;;3.35;1.30;;;25.20;56.00;;;;;;4988380;28;20444;-63
2021/06/21 12:51:11;;;;;;;2.75;1.10;;;25.20;56.00;;;;;;4988535;28;20389;-64
2021/06/21 12:53:44;;;;;;;2.83;1.38;;;25.20;56.00;;;;;;4988597;28;20407;-64
2021/06/21 12:56:29;;;;;;;4.20;1.30;;;25.20;55.90;;;;;;4984417;28;20391;-63